Terminal Aerodrome Forecast
Issued by NWS

Home | Current Version | Previous Version | Text Only | Print | Product List | Glossary On
Versions: 1 2 3 4 5 6 7 8 9 10 11 12 13 14
000
FTUS44 KTSA 211728
TAFXNA
TAF
KXNA 211728Z 2118/2218 19008KT P6SM FEW035
     FM220100 18004KT P6SM SCT250
     FM221200 21005KT P6SM SCT050 BKN250 PROB30 2212/2218 5SM -TSRA
      BR BKN050CB=

USA.gov is the U.S. government's official web portal to all federal, state and local government web resources and services.